Radiosonde details



Informationen :

Serial : D26019391
Type : Graw DFM
Frequency : 403.010MHz
Launchsite : Tampa Bay Area
Nearest town : Anna Maria, US (12.6km)

Altitude (Max) : 33603m at 2026-09-01 12:58:53
Speed (Max) : 106km/h at altitude 31511m

Average speed : 33km/h
Average ascent rate : 5m/s
Average descent rate : -20m/s
Ascent rate (Max) : 14.7m/s
Descent rate (Max): -40.1m/s

First frame :
ARGUS2 at 2026-09-01 11:22:34 at altitude 1772m (OG: 1730m)
Last frame :
ARGUS2 at 2026-09-01 13:25:46 at altitude 2212m (OG: 2170m)

Flighttime : 2h3m12s
Ascent time : 1h36m19s
Descent time : 26m53s
Uptime : -
Killtimer : -

Distance (Straight line distance): 46km

Distance (Route):


Frames : 315


Measurement :

Temperature : 14.1°C
Humidity : 0%
Pressure : 0hPa


Vertical profile (SkewT) :


Elevation profile :



Receiving stations :


Receiver Frames First received Last received
ARGUS2 315 2026-09-01 11:22:34 2026-09-01 13:25:46

Share per receiver :



All frames :


Receiver Date Latitude Longitude Direction Speed Altitude Climb Temperature Humidity Pressure Voltage Killtimer Uptime BKT XDATA
ARGUS22026-09-01 13:25:4627.57873-82.84968266°9km/h2212m-11.6m/s14.1°C0%0hPa0V00:00:0000:00:0000:00:00
ARGUS22026-09-01 13:25:2527.57862-82.84897278°11km/h2478m-12.5m/s12.6°C0%0hPa0V00:00:0000:00:0000:00:00
ARGUS22026-09-01 13:25:0427.57858-82.84849289°5km/h2738m-13.0m/s11.2°C0%0hPa0V00:00:0000:00:0000:00:00
ARGUS22026-09-01 13:24:4327.57855-82.84804262°9km/h3014m-12.7m/s10.2°C0%0hPa0V00:00:0000:00:0000:00:00
ARGUS22026-09-01 13:24:2327.57878-82.84760224°9km/h3270m-12.8m/s9.0°C0%0hPa0V00:00:0000:00:0000:00:00
ARGUS22026-09-01 13:24:0327.57923-82.84720219°15km/h3540m-13.0m/s7.4°C0%0hPa0V00:00:0000:00:0000:00:00
ARGUS22026-09-01 13:23:4227.57963-82.84670245°13km/h3804m-13.4m/s5.7°C0%0hPa0V00:00:0000:00:0000:00:00
ARGUS22026-09-01 13:23:2227.57992-82.84588252°20km/h4081m-13.2m/s4.1°C0%0hPa0V00:00:0000:00:0000:00:00
ARGUS22026-09-01 13:23:0127.58028-82.84473253°18km/h4349m-13.2m/s2.8°C0%0hPa0V00:00:0000:00:0000:00:00
ARGUS22026-09-01 13:22:4127.58072-82.84361258°22km/h4628m-13.0m/s1.4°C0%0hPa0V00:00:0000:00:0000:00:00
ARGUS22026-09-01 13:22:1927.58107-82.84254254°22km/h4910m-13.2m/s-0.1°C0%0hPa0V00:00:0000:00:0000:00:00
ARGUS22026-09-01 13:21:5827.58136-82.84148240°16km/h5197m-13.9m/s-2.1°C0%0hPa0V00:00:0000:00:0000:00:00
ARGUS22026-09-01 13:21:3727.58158-82.84042265°22km/h5494m-14.8m/s-3.4°C0%0hPa0V00:00:0000:00:0000:00:00
ARGUS22026-09-01 13:21:1427.58184-82.83909260°22km/h5849m-15.4m/s-5.8°C0%0hPa0V00:00:0000:00:0000:00:00
ARGUS22026-09-01 13:15:3027.58925-82.83690173°9km/h11255m-17.0m/s-43.0°C0%0hPa0V00:00:0000:00:0000:00:00
ARGUS22026-09-01 13:15:0427.58949-82.83710140°4km/h11695m-18.0m/s-46.4°C0%0hPa0V00:00:0000:00:0000:00:00
ARGUS22026-09-01 13:14:4427.58999-82.83716185°18km/h12059m-17.8m/s-48.8°C0%0hPa0V00:00:0000:00:0000:00:00
ARGUS22026-09-01 13:14:1727.59097-82.83694195°16km/h12553m-18.6m/s-52.7°C0%0hPa0V00:00:0000:00:0000:00:00
ARGUS22026-09-01 13:13:5627.59178-82.83675192°16km/h12935m-17.8m/s-56.2°C0%0hPa0V00:00:0000:00:0000:00:00
ARGUS22026-09-01 13:13:3627.59270-82.83646196°20km/h13303m-17.6m/s-58.8°C0%0hPa0V00:00:0000:00:0000:00:00
ARGUS22026-09-01 13:13:1427.59371-82.83627174°18km/h13674m-17.5m/s-61.7°C0%0hPa0V00:00:0000:00:0000:00:00
ARGUS22026-09-01 13:12:5427.59468-82.83665166°18km/h14000m-16.4m/s-64.5°C0%0hPa0V00:00:0000:00:0000:00:00
ARGUS22026-09-01 13:12:3327.59556-82.83682197°11km/h14360m-16.9m/s-66.7°C0%0hPa0V00:00:0000:00:0000:00:00
ARGUS22026-09-01 13:12:1327.59558-82.83618288°16km/h14709m-17.8m/s-69.4°C0%0hPa0V00:00:0000:00:0000:00:00
ARGUS22026-09-01 13:11:5227.59562-82.83584178°13km/h15086m-18.1m/s-69.2°C0%0hPa0V00:00:0000:00:0000:00:00
ARGUS22026-09-01 13:11:3227.59671-82.83544196°27km/h15455m-18.6m/s-68.1°C0%0hPa0V00:00:0000:00:0000:00:00
ARGUS22026-09-01 13:11:1227.59821-82.83496199°35km/h15851m-18.8m/s-66.5°C0%0hPa0V00:00:0000:00:0000:00:00
ARGUS22026-09-01 13:10:5127.59949-82.83418229°18km/h16227m-18.8m/s-68.3°C0%0hPa0V00:00:0000:00:0000:00:00
ARGUS22026-09-01 13:10:3127.60003-82.83361198°15km/h16625m-19.2m/s-67.4°C0%0hPa0V00:00:0000:00:0000:00:00
ARGUS22026-09-01 13:10:1027.60093-82.83281222°20km/h17013m-19.7m/s-67.2°C0%0hPa0V00:00:0000:00:0000:00:00
ARGUS22026-09-01 13:09:5027.60161-82.83169216°13km/h17429m-20.0m/s-68.1°C0%0hPa0V00:00:0000:00:0000:00:00
ARGUS22026-09-01 13:09:2927.60186-82.83067272°24km/h17836m-20.5m/s-66.7°C0%0hPa0V00:00:0000:00:0000:00:00
ARGUS22026-09-01 13:09:0927.60185-82.82975195°16km/h18241m-16.5m/s-66.1°C0%0hPa0V00:00:0000:00:0000:00:00
ARGUS22026-09-01 13:08:4827.60312-82.82858244°42km/h18574m-17.9m/s-64.1°C0%0hPa0V00:00:0000:00:0000:00:00
ARGUS22026-09-01 13:08:2827.60345-82.82659254°29km/h18944m-17.3m/s-64.5°C0%0hPa0V00:00:0000:00:0000:00:00
ARGUS22026-09-01 13:08:0627.60430-82.82449249°51km/h19301m-16.9m/s-63.8°C0%0hPa0V00:00:0000:00:0000:00:00
ARGUS22026-09-01 13:07:4627.60470-82.82175277°44km/h19648m-16.9m/s-63.7°C0%0hPa0V00:00:0000:00:0000:00:00
ARGUS22026-09-01 13:07:2627.60474-82.81943269°44km/h19999m-16.4m/s-63.3°C0%0hPa0V00:00:0000:00:0000:00:00
ARGUS22026-09-01 13:07:0527.60442-82.81727263°22km/h20409m-20.5m/s-62.4°C0%0hPa0V00:00:0000:00:0000:00:00
ARGUS22026-09-01 13:06:4427.60451-82.81489279°44km/h20829m-22.1m/s-61.5°C0%0hPa0V00:00:0000:00:0000:00:00
ARGUS22026-09-01 13:06:2427.60454-82.81257277°49km/h21288m-27.4m/s-59.2°C0%0hPa0V00:00:0000:00:0000:00:00
ARGUS22026-09-01 13:06:0427.60439-82.80945289°55km/h21863m-28.4m/s-55.1°C0%0hPa0V00:00:0000:00:0000:00:00
ARGUS22026-09-01 13:05:4527.60330-82.80686299°40km/h22392m-28.2m/s-55.4°C0%0hPa0V00:00:0000:00:0000:00:00
ARGUS22026-09-01 13:05:2227.60218-82.80440293°47km/h22935m-21.7m/s-54.0°C0%0hPa0V00:00:0000:00:0000:00:00
ARGUS22026-09-01 13:05:0327.60130-82.80236309°38km/h23366m-21.8m/s-55.5°C0%0hPa0V00:00:0000:00:0000:00:00
ARGUS22026-09-01 13:04:4227.60135-82.80066238°33km/h23882m-30.2m/s-55.3°C0%0hPa0V00:00:0000:00:0000:00:00
ARGUS22026-09-01 13:04:2127.60257-82.79895242°51km/h24556m-29.2m/s-55.2°C0%0hPa0V00:00:0000:00:0000:00:00
ARGUS22026-09-01 13:04:0127.60370-82.79554248°40km/h25140m-26.6m/s-52.4°C0%0hPa0V00:00:0000:00:0000:00:00
ARGUS22026-09-01 13:03:2027.60366-82.79043300°37km/h26184m-22.1m/s-48.4°C0%0hPa0V00:00:0000:00:0000:00:00
ARGUS22026-09-01 13:02:5827.60311-82.78900257°24km/h26651m-22.4m/s-48.6°C0%0hPa0V00:00:0000:00:0000:00:00
ARGUS22026-09-01 13:02:3827.60379-82.78786243°31km/h27107m-23.6m/s-50.0°C0%0hPa0V00:00:0000:00:0000:00:00
ARGUS22026-09-01 13:02:1727.60432-82.78566250°53km/h27601m-23.8m/s-49.0°C0%0hPa0V00:00:0000:00:0000:00:00
ARGUS22026-09-01 13:01:5727.60456-82.78307278°42km/h28100m-28.8m/s-48.4°C0%0hPa0V00:00:0000:00:0000:00:00
ARGUS22026-09-01 13:01:3727.60458-82.78136235°27km/h28744m-34.9m/s-48.2°C0%0hPa0V00:00:0000:00:0000:00:00
ARGUS22026-09-01 13:01:1627.60596-82.77928246°57km/h29486m-40.1m/s-48.0°C0%0hPa0V00:00:0000:00:0000:00:00
ARGUS22026-09-01 13:00:5627.60650-82.77581268°60km/h30147m-25.4m/s-46.7°C0%0hPa0V00:00:0000:00:0000:00:00
ARGUS22026-09-01 13:00:3527.60764-82.77311234°64km/h30666m-26.1m/s-45.7°C0%0hPa0V00:00:0000:00:0000:00:00
ARGUS22026-09-01 13:00:1527.60909-82.76934258°75km/h31218m-25.6m/s-44.3°C0%0hPa0V00:00:0000:00:0000:00:00
ARGUS22026-09-01 12:59:5427.60899-82.76546283°57km/h31749m-27.7m/s-38.1°C0%0hPa0V00:00:0000:00:0000:00:00
ARGUS22026-09-01 12:59:3327.60872-82.76189281°57km/h32364m-32.3m/s-36.6°C0%0hPa0V00:00:0000:00:0000:00:00
ARGUS22026-09-01 12:59:1327.60723-82.75839311°60km/h33060m-34.8m/s-37.0°C0%0hPa0V00:00:0000:00:0000:00:00
ARGUS22026-09-01 12:58:5327.60573-82.75562261°64km/h33603m6.1m/s-36.1°C0%0hPa0V00:00:0000:00:0000:00:00
ARGUS22026-09-01 12:58:3227.60443-82.75322277°44km/h33472m8.6m/s-36.0°C0%0hPa0V00:00:0000:00:0000:00:00
ARGUS22026-09-01 12:58:1227.60290-82.75077333°93km/h33330m2.8m/s-36.4°C0%0hPa0V00:00:0000:00:0000:00:00
ARGUS22026-09-01 12:57:5227.60143-82.74782313°33km/h33193m-0.1m/s-36.4°C0%0hPa0V00:00:0000:00:0000:00:00
ARGUS22026-09-01 12:57:3127.59916-82.74439286°78km/h33051m1.3m/s-37.4°C0%0hPa0V00:00:0000:00:0000:00:00
ARGUS22026-09-01 12:57:0927.59712-82.74062322°78km/h32896m6.9m/s-37.6°C0%0hPa0V00:00:0000:00:0000:00:00
ARGUS22026-09-01 12:56:4827.59540-82.73697289°49km/h32769m4.6m/s-36.7°C0%0hPa0V00:00:0000:00:0000:00:00
ARGUS22026-09-01 12:56:2627.59398-82.73289289°104km/h32632m1.7m/s-36.4°C0%0hPa0V00:00:0000:00:0000:00:00
ARGUS22026-09-01 12:56:0627.59280-82.72958324°55km/h32515m7.2m/s-36.7°C0%0hPa0V00:00:0000:00:0000:00:00
ARGUS22026-09-01 12:55:4527.59284-82.72637268°95km/h32396m3.9m/s-36.9°C0%0hPa0V00:00:0000:00:0000:00:00
ARGUS22026-09-01 12:55:2527.59266-82.72340223°49km/h32284m10.8m/s-37.1°C0%0hPa0V00:00:0000:00:0000:00:00
ARGUS22026-09-01 12:55:0427.59264-82.71995235°26km/h32160m1.4m/s-38.0°C0%0hPa0V00:00:0000:00:0000:00:00
ARGUS22026-09-01 12:54:4427.59279-82.71656282°84km/h32040m4.5m/s-38.5°C0%0hPa0V00:00:0000:00:0000:00:00
ARGUS22026-09-01 12:54:2327.59248-82.71350235°35km/h31911m11.0m/s-38.6°C0%0hPa0V00:00:0000:00:0000:00:00
ARGUS22026-09-01 12:54:0327.59256-82.71028297°68km/h31785m14.7m/s-39.3°C0%0hPa0V00:00:0000:00:0000:00:00
ARGUS22026-09-01 12:53:4327.59285-82.70673227°60km/h31645m6.2m/s-40.0°C0%0hPa0V00:00:0000:00:0000:00:00
ARGUS22026-09-01 12:53:2227.59308-82.70316276°104km/h31511m0.5m/s-41.3°C0%0hPa0V00:00:0000:00:0000:00:00
ARGUS22026-09-01 12:52:4227.59391-82.69530211°88km/h31207m6.4m/s-44.8°C0%0hPa0V00:00:0000:00:0000:00:00
ARGUS22026-09-01 12:52:2127.59511-82.69153222°60km/h31056m8.3m/s-45.0°C0%0hPa0V00:00:0000:00:0000:00:00
ARGUS22026-09-01 12:52:0027.59667-82.68804192°57km/h30907m9.4m/s-45.0°C0%0hPa0V00:00:0000:00:0000:00:00
ARGUS22026-09-01 12:51:4027.59873-82.68481197°62km/h30758m11.8m/s-44.9°C0%0hPa0V00:00:0000:00:0000:00:00
ARGUS22026-09-01 12:51:1827.60083-82.68224187°60km/h30612m12.2m/s-44.9°C0%0hPa0V00:00:0000:00:0000:00:00
ARGUS22026-09-01 12:50:5827.60290-82.68006180°4km/h30472m7.5m/s-44.5°C0%0hPa0V00:00:0000:00:0000:00:00
ARGUS22026-09-01 12:50:3727.60467-82.67802253°62km/h30339m8.1m/s-45.2°C0%0hPa0V00:00:0000:00:0000:00:00
ARGUS22026-09-01 12:50:1727.60534-82.67572219°82km/h30210m4.3m/s-45.1°C0%0hPa0V00:00:0000:00:0000:00:00
ARGUS22026-09-01 12:49:5727.60554-82.67236230°55km/h30076m8.2m/s-46.1°C0%0hPa0V00:00:0000:00:0000:00:00
ARGUS22026-09-01 12:49:3627.60543-82.66869220°46km/h29946m6.5m/s-47.1°C0%0hPa0V00:00:0000:00:0000:00:00
ARGUS22026-09-01 12:49:1527.60588-82.66552210°51km/h29809m5.3m/s-47.1°C0%0hPa0V00:00:0000:00:0000:00:00
ARGUS22026-09-01 12:48:5527.60631-82.66277215°26km/h29687m10.4m/s-47.0°C0%0hPa0V00:00:0000:00:0000:00:00
ARGUS22026-09-01 12:48:3527.60733-82.65975204°55km/h29554m9.3m/s-48.0°C0%0hPa0V00:00:0000:00:0000:00:00
ARGUS22026-09-01 12:48:0727.60908-82.65633201°60km/h29375m9.4m/s-48.0°C0%0hPa0V00:00:0000:00:0000:00:00
ARGUS22026-09-01 12:47:4627.61051-82.65423173°37km/h29245m3.2m/s-48.1°C0%0hPa0V00:00:0000:00:0000:00:00
ARGUS22026-09-01 12:47:2627.61183-82.65220150°35km/h29109m6.7m/s-48.3°C0%0hPa0V00:00:0000:00:0000:00:00
ARGUS22026-09-01 12:47:0527.61295-82.65042289°26km/h28979m4.3m/s-48.1°C0%0hPa0V00:00:0000:00:0000:00:00
ARGUS22026-09-01 12:46:4527.61373-82.64896299°55km/h28840m0.7m/s-47.7°C0%0hPa0V00:00:0000:00:0000:00:00
ARGUS22026-09-01 12:46:2427.61403-82.64772306°58km/h28705m5.0m/s-47.4°C0%0hPa0V00:00:0000:00:0000:00:00
ARGUS22026-09-01 12:45:4227.61336-82.64519251°46km/h28444m2.1m/s-46.9°C0%0hPa0V00:00:0000:00:0000:00:00
ARGUS22026-09-01 12:45:2027.61240-82.64337279°69km/h28308m3.4m/s-46.6°C0%0hPa0V00:00:0000:00:0000:00:00
ARGUS22026-09-01 12:44:5827.61153-82.64086303°55km/h28164m10.1m/s-46.7°C0%0hPa0V00:00:0000:00:0000:00:00
ARGUS22026-09-01 12:44:3827.61110-82.63864314°69km/h28027m9.8m/s-47.2°C0%0hPa0V00:00:0000:00:0000:00:00
ARGUS22026-09-01 12:44:1627.61080-82.63580312°55km/h27894m11.2m/s-47.8°C0%0hPa0V00:00:0000:00:0000:00:00
ARGUS22026-09-01 12:43:4527.61101-82.63207221°46km/h27693m10.7m/s-48.3°C0%0hPa0V00:00:0000:00:0000:00:00
ARGUS22026-09-01 12:43:2527.61195-82.62925206°57km/h27556m9.4m/s-48.5°C0%0hPa0V00:00:0000:00:0000:00:00
ARGUS22026-09-01 12:43:0427.61288-82.62675229°80km/h27412m8.7m/s-49.1°C0%0hPa0V00:00:0000:00:0000:00:00
ARGUS22026-09-01 12:42:4027.61364-82.62430326°27km/h27261m5.7m/s-49.8°C0%0hPa0V00:00:0000:00:0000:00:00
ARGUS22026-09-01 12:42:2027.61448-82.62274197°9km/h27115m6.6m/s-50.0°C0%0hPa0V00:00:0000:00:0000:00:00
ARGUS22026-09-01 12:41:5827.61564-82.62175152°16km/h26978m8.5m/s-49.5°C0%0hPa0V00:00:0000:00:0000:00:00
ARGUS22026-09-01 12:41:3827.61667-82.6211290°15km/h26853m3.9m/s-48.9°C0%0hPa0V00:00:0000:00:0000:00:00
ARGUS22026-09-01 12:41:1727.61761-82.6201411°2km/h26724m8.6m/s-48.8°C0%0hPa0V00:00:0000:00:0000:00:00
ARGUS22026-09-01 12:40:5727.61816-82.61881323°44km/h26604m1.8m/s-48.6°C0%0hPa0V00:00:0000:00:0000:00:00
ARGUS22026-09-01 12:40:3627.61806-82.61765331°53km/h26481m1.2m/s-49.5°C0%0hPa0V00:00:0000:00:0000:00:00
ARGUS22026-09-01 12:40:1527.61793-82.61591309°68km/h26362m9.6m/s-50.0°C0%0hPa0V00:00:0000:00:0000:00:00
ARGUS22026-09-01 12:39:5327.61704-82.61313295°77km/h26242m2.3m/s-51.1°C0%0hPa0V00:00:0000:00:0000:00:00
ARGUS22026-09-01 12:39:3327.61636-82.61009294°82km/h26133m6.8m/s-52.5°C0%0hPa0V00:00:0000:00:0000:00:00
ARGUS22026-09-01 12:39:1327.61573-82.60642280°46km/h26003m8.5m/s-53.0°C0%0hPa0V00:00:0000:00:0000:00:00
ARGUS22026-09-01 12:38:5227.61563-82.60311286°53km/h25886m3.3m/s-52.8°C0%0hPa0V00:00:0000:00:0000:00:00
ARGUS22026-09-01 12:38:3127.61593-82.59991264°24km/h25753m8.4m/s-52.5°C0%0hPa0V00:00:0000:00:0000:00:00
ARGUS22026-09-01 12:38:1127.61638-82.59760258°20km/h25625m3.4m/s-52.6°C0%0hPa0V00:00:0000:00:0000:00:00
ARGUS22026-09-01 12:37:5127.61714-82.59562252°37km/h25498m6.2m/s-51.9°C0%0hPa0V00:00:0000:00:0000:00:00
ARGUS22026-09-01 12:37:3027.61784-82.59403248°40km/h25364m10.1m/s-51.4°C0%0hPa0V00:00:0000:00:0000:00:00
ARGUS22026-09-01 12:37:1027.61829-82.59204262°55km/h25225m2.2m/s-51.8°C0%0hPa0V00:00:0000:00:0000:00:00
ARGUS22026-09-01 12:36:4927.61834-82.58962258°77km/h25095m1.4m/s-52.2°C0%0hPa0V00:00:0000:00:0000:00:00
ARGUS22026-09-01 12:36:2727.61867-82.58603263°60km/h24964m6.7m/s-51.7°C0%0hPa0V00:00:0000:00:0000:00:00
ARGUS22026-09-01 12:36:0627.61913-82.58210271°77km/h24830m5.2m/s-52.3°C0%0hPa0V00:00:0000:00:0000:00:00
ARGUS22026-09-01 12:35:4627.61993-82.57771239°64km/h24716m7.9m/s-53.0°C0%0hPa0V00:00:0000:00:0000:00:00
ARGUS22026-09-01 12:35:2527.62059-82.57438241°68km/h24604m7.9m/s-54.2°C0%0hPa0V00:00:0000:00:0000:00:00
ARGUS22026-09-01 12:35:0527.62147-82.57160218°69km/h24485m2.2m/s-54.3°C0%0hPa0V00:00:0000:00:0000:00:00
ARGUS22026-09-01 12:34:4427.62288-82.56895213°57km/h24364m4.5m/s-54.7°C0%0hPa0V00:00:0000:00:0000:00:00
ARGUS22026-09-01 12:34:2427.62417-82.56703271°55km/h24238m4.8m/s-54.5°C0%0hPa0V00:00:0000:00:0000:00:00
ARGUS22026-09-01 12:34:0327.62488-82.56567259°35km/h24113m1.4m/s-54.6°C0%0hPa0V00:00:0000:00:0000:00:00
ARGUS22026-09-01 12:33:4327.62516-82.56466292°55km/h23990m4.9m/s-54.8°C0%0hPa0V00:00:0000:00:0000:00:00
ARGUS22026-09-01 12:33:2127.62511-82.56327267°20km/h23863m8.9m/s-54.1°C0%0hPa0V00:00:0000:00:0000:00:00
ARGUS22026-09-01 12:33:0127.62547-82.56174230°27km/h23748m8.8m/s-54.3°C0%0hPa0V00:00:0000:00:0000:00:00
ARGUS22026-09-01 12:32:4127.62614-82.56023258°11km/h23624m8.1m/s-54.1°C0%0hPa0V00:00:0000:00:0000:00:00
ARGUS22026-09-01 12:32:2127.62631-82.55878299°18km/h23499m6.8m/s-53.8°C0%0hPa0V00:00:0000:00:0000:00:00
ARGUS22026-09-01 12:31:5927.62583-82.55713322°29km/h23365m7.6m/s-53.9°C0%0hPa0V00:00:0000:00:0000:00:00
ARGUS22026-09-01 12:31:3927.62481-82.55568295°44km/h23248m6.8m/s-54.2°C0%0hPa0V00:00:0000:00:0000:00:00
ARGUS22026-09-01 12:30:5827.62268-82.55222279°38km/h23011m4.8m/s-53.4°C0%0hPa0V00:00:0000:00:0000:00:00
ARGUS22026-09-01 12:30:3827.62203-82.54993281°20km/h22903m5.1m/s-53.6°C0%0hPa0V00:00:0000:00:0000:00:00
ARGUS22026-09-01 12:30:1927.62107-82.54756312°58km/h22790m8.4m/s-53.8°C0%0hPa0V00:00:0000:00:0000:00:00
ARGUS22026-09-01 12:29:5727.61992-82.54497282°27km/h22673m6.0m/s-54.2°C0%0hPa0V00:00:0000:00:0000:00:00
ARGUS22026-09-01 12:29:3627.61901-82.54276305°49km/h22561m10.2m/s-55.6°C0%0hPa0V00:00:0000:00:0000:00:00
ARGUS22026-09-01 12:29:1627.61795-82.54030297°73km/h22445m3.3m/s-56.0°C0%0hPa0V00:00:0000:00:0000:00:00
ARGUS22026-09-01 12:28:5427.61659-82.53739286°46km/h22319m5.4m/s-56.0°C0%0hPa0V00:00:0000:00:0000:00:00
ARGUS22026-09-01 12:28:3427.61555-82.53442286°51km/h22189m6.9m/s-55.9°C0%0hPa0V00:00:0000:00:0000:00:00
ARGUS22026-09-01 12:28:1327.61454-82.53110297°68km/h22071m5.6m/s-56.0°C0%0hPa0V00:00:0000:00:0000:00:00
ARGUS22026-09-01 12:27:5327.61408-82.52776269°62km/h21947m3.6m/s-56.3°C0%0hPa0V00:00:0000:00:0000:00:00
ARGUS22026-09-01 12:27:3327.61384-82.52449292°51km/h21825m7.3m/s-57.3°C0%0hPa0V00:00:0000:00:0000:00:00
ARGUS22026-09-01 12:27:1327.61357-82.52097255°84km/h21718m1.7m/s-57.8°C0%0hPa0V00:00:0000:00:0000:00:00
ARGUS22026-09-01 12:26:5127.61382-82.51725265°51km/h21600m4.2m/s-58.6°C0%0hPa0V00:00:0000:00:0000:00:00
ARGUS22026-09-01 12:26:3027.61393-82.51414257°58km/h21494m0.7m/s-59.1°C0%0hPa0V00:00:0000:00:0000:00:00
ARGUS22026-09-01 12:26:0927.61356-82.51119273°57km/h21397m6.8m/s-60.0°C0%0hPa0V00:00:0000:00:0000:00:00
ARGUS22026-09-01 12:25:4927.61394-82.50836254°58km/h21293m6.6m/s-60.8°C0%0hPa0V00:00:0000:00:0000:00:00
ARGUS22026-09-01 12:25:2827.61437-82.50591230°40km/h21184m5.9m/s-62.2°C0%0hPa0V00:00:0000:00:0000:00:00
ARGUS22026-09-01 12:25:0827.61445-82.50399266°33km/h21083m4.9m/s-62.8°C0%0hPa0V00:00:0000:00:0000:00:00
ARGUS22026-09-01 12:24:4727.61436-82.50168251°37km/h20967m3.2m/s-63.3°C0%0hPa0V00:00:0000:00:0000:00:00
ARGUS22026-09-01 12:24:2627.61435-82.49943260°51km/h20857m7.2m/s-63.0°C0%0hPa0V00:00:0000:00:0000:00:00
ARGUS22026-09-01 12:24:0627.61479-82.49714282°27km/h20731m6.9m/s-62.9°C0%0hPa0V00:00:0000:00:0000:00:00
ARGUS22026-09-01 12:23:4627.61481-82.49541267°29km/h20604m7.5m/s-62.5°C0%0hPa0V00:00:0000:00:0000:00:00
ARGUS22026-09-01 12:23:2527.61483-82.49450342°27km/h20477m5.9m/s-62.8°C0%0hPa0V00:00:0000:00:0000:00:00
ARGUS22026-09-01 12:23:0527.61431-82.49340266°18km/h20351m4.7m/s-62.7°C0%0hPa0V00:00:0000:00:0000:00:00
ARGUS22026-09-01 12:22:4427.61358-82.49168305°57km/h20232m4.0m/s-62.6°C0%0hPa0V00:00:0000:00:0000:00:00
ARGUS22026-09-01 12:22:2427.61311-82.48933265°51km/h20118m5.0m/s-62.6°C0%0hPa0V00:00:0000:00:0000:00:00
ARGUS22026-09-01 12:22:0327.61285-82.48652267°44km/h20001m6.9m/s-63.1°C0%0hPa0V00:00:0000:00:0000:00:00
ARGUS22026-09-01 12:21:4227.61298-82.48408287°46km/h19891m3.3m/s-63.0°C0%0hPa0V00:00:0000:00:0000:00:00
ARGUS22026-09-01 12:21:2127.61312-82.48206276°29km/h19782m6.9m/s-63.7°C0%0hPa0V00:00:0000:00:0000:00:00
ARGUS22026-09-01 12:21:0127.61317-82.47996237°51km/h19671m6.8m/s-63.7°C0%0hPa0V00:00:0000:00:0000:00:00
ARGUS22026-09-01 12:20:4127.61361-82.47757250°42km/h19564m5.9m/s-64.2°C0%0hPa0V00:00:0000:00:0000:00:00
ARGUS22026-09-01 12:20:1927.61418-82.47475249°51km/h19451m6.4m/s-63.8°C0%0hPa0V00:00:0000:00:0000:00:00
ARGUS22026-09-01 12:19:5927.61530-82.47208251°47km/h19341m6.9m/s-63.7°C0%0hPa0V00:00:0000:00:0000:00:00
ARGUS22026-09-01 12:19:3927.61638-82.46955266°51km/h19235m7.0m/s-63.9°C0%0hPa0V00:00:0000:00:0000:00:00
ARGUS22026-09-01 12:19:1927.61736-82.46737248°49km/h19123m6.6m/s-64.2°C0%0hPa0V00:00:0000:00:0000:00:00
ARGUS22026-09-01 12:18:5827.61834-82.46564233°55km/h19008m3.1m/s-64.3°C0%0hPa0V00:00:0000:00:0000:00:00
ARGUS22026-09-01 12:18:3727.61881-82.46403264°29km/h18902m4.4m/s-64.7°C0%0hPa0V00:00:0000:00:0000:00:00
ARGUS22026-09-01 12:18:1727.61908-82.46201265°38km/h18804m6.6m/s-64.4°C0%0hPa0V00:00:0000:00:0000:00:00
ARGUS22026-09-01 12:17:5627.61938-82.45962257°51km/h18706m6.4m/s-64.2°C0%0hPa0V00:00:0000:00:0000:00:00
ARGUS22026-09-01 12:17:3627.62043-82.45737233°46km/h18599m6.4m/s-64.9°C0%0hPa0V00:00:0000:00:0000:00:00
ARGUS22026-09-01 12:17:1727.62200-82.45599212°40km/h18499m6.9m/s-65.9°C0%0hPa0V00:00:0000:00:0000:00:00
ARGUS22026-09-01 12:16:5527.62349-82.45546186°27km/h18393m5.8m/s-65.8°C0%0hPa0V00:00:0000:00:0000:00:00
ARGUS22026-09-01 12:16:3327.62463-82.45536196°20km/h18291m5.0m/s-66.6°C0%0hPa0V00:00:0000:00:0000:00:00
ARGUS22026-09-01 12:16:1427.62501-82.45482199°13km/h18187m6.3m/s-66.3°C0%0hPa0V00:00:0000:00:0000:00:00
ARGUS22026-09-01 12:15:5227.62512-82.45398275°20km/h18085m7.2m/s-65.8°C0%0hPa0V00:00:0000:00:0000:00:00
ARGUS22026-09-01 12:15:3327.62498-82.45303248°13km/h17979m4.8m/s-67.1°C0%0hPa0V00:00:0000:00:0000:00:00
ARGUS22026-09-01 12:15:1127.62539-82.45187249°24km/h17864m6.5m/s-66.9°C0%0hPa0V00:00:0000:00:0000:00:00
ARGUS22026-09-01 12:14:5127.62614-82.45023226°22km/h17756m6.5m/s-67.3°C0%0hPa0V00:00:0000:00:0000:00:00
ARGUS22026-09-01 12:14:3027.62700-82.44866228°33km/h17640m3.6m/s-67.6°C0%0hPa0V00:00:0000:00:0000:00:00
ARGUS22026-09-01 12:14:1027.62808-82.44759214°27km/h17530m6.6m/s-68.1°C0%0hPa0V00:00:0000:00:0000:00:00
ARGUS22026-09-01 12:13:5027.62945-82.44700220°18km/h17423m2.9m/s-67.5°C0%0hPa0V00:00:0000:00:0000:00:00
ARGUS22026-09-01 12:13:2927.63075-82.44639226°22km/h17316m5.7m/s-66.9°C0%0hPa0V00:00:0000:00:0000:00:00
ARGUS22026-09-01 12:13:0927.63217-82.44556231°22km/h17208m5.0m/s-66.6°C0%0hPa0V00:00:0000:00:0000:00:00
ARGUS22026-09-01 12:12:4927.63371-82.44460201°42km/h17115m5.1m/s-66.3°C0%0hPa0V00:00:0000:00:0000:00:00
ARGUS22026-09-01 12:12:2827.63526-82.44348227°29km/h17012m6.1m/s-67.0°C0%0hPa0V00:00:0000:00:0000:00:00
ARGUS22026-09-01 12:12:0727.63638-82.44259222°31km/h16912m5.1m/s-67.3°C0%0hPa0V00:00:0000:00:0000:00:00
ARGUS22026-09-01 12:11:4727.63762-82.44168209°24km/h16809m5.2m/s-67.4°C0%0hPa0V00:00:0000:00:0000:00:00
ARGUS22026-09-01 12:11:2527.63870-82.44095212°35km/h16707m4.2m/s-67.2°C0%0hPa0V00:00:0000:00:0000:00:00
ARGUS22026-09-01 12:11:0527.63945-82.44074179°16km/h16609m5.4m/s-67.5°C0%0hPa0V00:00:0000:00:0000:00:00
ARGUS22026-09-01 12:10:4427.64010-82.44032230°24km/h16500m4.4m/s-68.2°C0%0hPa0V00:00:0000:00:0000:00:00
ARGUS22026-09-01 12:10:2427.64045-82.43960239°26km/h16397m5.6m/s-68.1°C0%0hPa0V00:00:0000:00:0000:00:00
ARGUS22026-09-01 12:10:0327.64087-82.43847233°22km/h16290m5.8m/s-68.3°C0%0hPa0V00:00:0000:00:0000:00:00
ARGUS22026-09-01 12:09:4327.64147-82.43758243°29km/h16188m4.6m/s-68.6°C0%0hPa0V00:00:0000:00:0000:00:00
ARGUS22026-09-01 12:09:2227.64249-82.43671205°26km/h16079m4.9m/s-68.0°C0%0hPa0V00:00:0000:00:0000:00:00
ARGUS22026-09-01 12:09:0227.64385-82.43603188°31km/h15979m5.8m/s-67.3°C0%0hPa0V00:00:0000:00:0000:00:00
ARGUS22026-09-01 12:08:4227.64564-82.43542194°42km/h15878m5.7m/s-67.0°C0%0hPa0V00:00:0000:00:0000:00:00
ARGUS22026-09-01 12:08:2127.64718-82.43485220°22km/h15780m5.1m/s-67.1°C0%0hPa0V00:00:0000:00:0000:00:00
ARGUS22026-09-01 12:08:0127.64874-82.43461190°35km/h15682m4.8m/s-67.2°C0%0hPa0V00:00:0000:00:0000:00:00
ARGUS22026-09-01 12:07:4027.65042-82.43475161°37km/h15591m5.5m/s-67.7°C0%0hPa0V00:00:0000:00:0000:00:00
ARGUS22026-09-01 12:07:2027.65212-82.43468173°18km/h15494m4.0m/s-68.6°C0%0hPa0V00:00:0000:00:0000:00:00
ARGUS22026-09-01 12:07:0027.65383-82.43439188°35km/h15399m5.5m/s-69.0°C0%0hPa0V00:00:0000:00:0000:00:00
ARGUS22026-09-01 12:06:3927.65554-82.43411197°38km/h15296m5.7m/s-68.3°C0%0hPa0V00:00:0000:00:0000:00:00
ARGUS22026-09-01 12:06:1827.65687-82.43365191°31km/h15185m2.6m/s-69.1°C0%0hPa0V00:00:0000:00:0000:00:00
ARGUS22026-09-01 12:05:5727.65727-82.43376195°4km/h15087m6.4m/s-70.2°C0%0hPa0V00:00:0000:00:0000:00:00
ARGUS22026-09-01 12:05:3627.65730-82.43363273°11km/h14980m4.5m/s-70.9°C0%0hPa0V00:00:0000:00:0000:00:00
ARGUS22026-09-01 12:05:1627.65725-82.43310287°18km/h14886m3.5m/s-70.5°C0%0hPa0V00:00:0000:00:0000:00:00
ARGUS22026-09-01 12:04:5527.65712-82.43246315°24km/h14785m5.1m/s-69.8°C0%0hPa0V00:00:0000:00:0000:00:00
ARGUS22026-09-01 12:04:3527.65700-82.43178239°22km/h14689m4.1m/s-69.3°C0%0hPa0V00:00:0000:00:0000:00:00
ARGUS22026-09-01 12:04:1527.65704-82.43135144°15km/h14544m2.9m/s-68.0°C0%0hPa0V00:00:0000:00:0000:00:00
ARGUS22026-09-01 12:03:5427.65748-82.43114168°35km/h14420m5.5m/s-67.2°C0%0hPa0V00:00:0000:00:0000:00:00
ARGUS22026-09-01 12:03:3427.65829-82.43125159°16km/h14300m5.0m/s-66.5°C0%0hPa0V00:00:0000:00:0000:00:00
ARGUS22026-09-01 12:03:1327.65915-82.43159114°9km/h14199m3.6m/s-65.9°C0%0hPa0V00:00:0000:00:0000:00:00
ARGUS22026-09-01 12:02:5327.66003-82.43176173°35km/h14093m6.6m/s-65.2°C0%0hPa0V00:00:0000:00:0000:00:00
ARGUS22026-09-01 12:02:3227.66106-82.43219164°29km/h13987m5.9m/s-64.3°C0%0hPa0V00:00:0000:00:0000:00:00
ARGUS22026-09-01 12:02:1227.66224-82.43263194°24km/h13875m2.9m/s-63.4°C0%0hPa0V00:00:0000:00:0000:00:00
ARGUS22026-09-01 12:01:5127.66332-82.43304172°22km/h13771m5.1m/s-62.4°C0%0hPa0V00:00:0000:00:0000:00:00
ARGUS22026-09-01 12:01:3127.66451-82.43341145°27km/h13661m2.9m/s-61.6°C0%0hPa0V00:00:0000:00:0000:00:00
ARGUS22026-09-01 12:01:1027.66562-82.43362164°27km/h13554m4.1m/s-60.8°C0%0hPa0V00:00:0000:00:0000:00:00
ARGUS22026-09-01 12:00:4927.66672-82.43362155°27km/h13453m3.8m/s-59.9°C0%0hPa0V00:00:0000:00:0000:00:00
ARGUS22026-09-01 12:00:2827.66806-82.43362132°15km/h13351m6.2m/s-59.1°C0%0hPa0V00:00:0000:00:0000:00:00
ARGUS22026-09-01 12:00:0827.66932-82.43371185°44km/h13251m3.4m/s-58.2°C0%0hPa0V00:00:0000:00:0000:00:00
ARGUS22026-09-01 11:59:4827.67066-82.43397159°27km/h13148m4.6m/s-57.4°C0%0hPa0V00:00:0000:00:0000:00:00
ARGUS22026-09-01 11:59:2827.67177-82.43405159°42km/h13043m4.9m/s-56.5°C0%0hPa0V00:00:0000:00:0000:00:00
ARGUS22026-09-01 11:59:0727.67294-82.43396167°26km/h12937m4.7m/s-55.6°C0%0hPa0V00:00:0000:00:0000:00:00
ARGUS22026-09-01 11:58:4627.67401-82.43403166°22km/h12842m5.6m/s-54.9°C0%0hPa0V00:00:0000:00:0000:00:00
ARGUS22026-09-01 11:58:2627.67495-82.43398175°40km/h12732m4.3m/s-54.1°C0%0hPa0V00:00:0000:00:0000:00:00
ARGUS22026-09-01 11:58:0627.67560-82.43394224°13km/h12630m4.2m/s-53.2°C0%0hPa0V00:00:0000:00:0000:00:00
ARGUS22026-09-01 11:57:4627.67625-82.43402132°7km/h12527m5.9m/s-52.3°C0%0hPa0V00:00:0000:00:0000:00:00
ARGUS22026-09-01 11:57:2527.67683-82.43409132°18km/h12425m3.8m/s-51.4°C0%0hPa0V00:00:0000:00:0000:00:00
ARGUS22026-09-01 11:57:0427.67727-82.43425341°16km/h12308m3.8m/s-50.4°C0%0hPa0V00:00:0000:00:0000:00:00
ARGUS22026-09-01 11:56:4427.67757-82.43433285°13km/h12206m6.0m/s-49.7°C0%0hPa0V00:00:0000:00:0000:00:00
ARGUS22026-09-01 11:56:0127.67734-82.4349979°7km/h12004m5.7m/s-48.1°C0%0hPa0V00:00:0000:00:0000:00:00
ARGUS22026-09-01 11:55:4127.67720-82.4355986°15km/h11913m3.8m/s-47.5°C0%0hPa0V00:00:0000:00:0000:00:00
ARGUS22026-09-01 11:55:2127.67692-82.4360015km/h11818m3.9m/s-46.9°C0%0hPa0V00:00:0000:00:0000:00:00
ARGUS22026-09-01 11:55:0127.67654-82.4363835°24km/h11731m4.6m/s-46.3°C0%0hPa0V00:00:0000:00:0000:00:00
ARGUS22026-09-01 11:54:4027.67587-82.4366422km/h11640m3.8m/s-45.5°C0%0hPa0V00:00:0000:00:0000:00:00
ARGUS22026-09-01 11:54:1927.67519-82.4368728°16km/h11550m4.6m/s-44.7°C0%0hPa0V00:00:0000:00:0000:00:00
ARGUS22026-09-01 11:53:5927.67473-82.43716356°4km/h11455m4.9m/s-44.2°C0%0hPa0V00:00:0000:00:0000:00:00
ARGUS22026-09-01 11:53:3927.67438-82.4371256°9km/h11368m3.9m/s-43.7°C0%0hPa0V00:00:0000:00:0000:00:00
ARGUS22026-09-01 11:53:1827.67410-82.4369822°15km/h11273m2.9m/s-42.9°C0%0hPa0V00:00:0000:00:0000:00:00
ARGUS22026-09-01 11:52:5727.67388-82.43700265°4km/h11169m6.4m/s-42.1°C0%0hPa0V00:00:0000:00:0000:00:00
ARGUS22026-09-01 11:52:3627.67402-82.43719128°13km/h11067m4.2m/s-41.3°C0%0hPa0V00:00:0000:00:0000:00:00
ARGUS22026-09-01 11:52:1627.67432-82.43737124°13km/h10974m4.5m/s-40.4°C0%0hPa0V00:00:0000:00:0000:00:00
ARGUS22026-09-01 11:51:5627.67454-82.43744254°9km/h10872m5.5m/s-39.6°C0%0hPa0V00:00:0000:00:0000:00:00
ARGUS22026-09-01 11:51:3527.67501-82.43760119°13km/h10759m5.0m/s-38.7°C0%0hPa0V00:00:0000:00:0000:00:00
ARGUS22026-09-01 11:51:1327.67561-82.43790181°15km/h10648m4.0m/s-37.9°C0%0hPa0V00:00:0000:00:0000:00:00
ARGUS22026-09-01 11:50:5227.67601-82.43806157°11km/h10545m4.8m/s-37.2°C0%0hPa0V00:00:0000:00:0000:00:00
ARGUS22026-09-01 11:50:3027.67637-82.43842115°13km/h10434m5.3m/s-36.4°C0%0hPa0V00:00:0000:00:0000:00:00
ARGUS22026-09-01 11:50:1027.67686-82.43906151°26km/h10336m4.6m/s-35.6°C0%0hPa0V00:00:0000:00:0000:00:00
ARGUS22026-09-01 11:49:4727.67749-82.43991119°20km/h10225m4.0m/s-34.8°C0%0hPa0V00:00:0000:00:0000:00:00
ARGUS22026-09-01 11:49:2627.67806-82.44080116°29km/h10126m4.2m/s-34.0°C0%0hPa0V00:00:0000:00:0000:00:00
ARGUS22026-09-01 11:49:0627.67873-82.44170141°16km/h10028m4.5m/s-33.2°C0%0hPa0V00:00:0000:00:0000:00:00
ARGUS22026-09-01 11:48:4427.67921-82.44252113°15km/h9930m5.3m/s-32.3°C0%0hPa0V00:00:0000:00:0000:00:00
ARGUS22026-09-01 11:48:2427.67956-82.44322105°13km/h9832m3.9m/s-31.6°C0%0hPa0V00:00:0000:00:0000:00:00
ARGUS22026-09-01 11:48:0327.68000-82.44395138°35km/h9735m2.3m/s-30.9°C0%0hPa0V00:00:0000:00:0000:00:00
ARGUS22026-09-01 11:47:4227.68064-82.44435119°24km/h9629m5.1m/s-30.2°C0%0hPa0V00:00:0000:00:0000:00:00
ARGUS22026-09-01 11:47:2227.68103-82.444664km/h9538m6.3m/s-29.3°C0%0hPa0V00:00:0000:00:0000:00:00
ARGUS22026-09-01 11:47:0127.68112-82.44511167°9km/h9420m5.7m/s-28.2°C0%0hPa0V00:00:0000:00:0000:00:00
ARGUS22026-09-01 11:46:4027.68136-82.4455495°4km/h9328m5.3m/s-27.5°C0%0hPa0V00:00:0000:00:0000:00:00
ARGUS22026-09-01 11:46:2027.68147-82.4460054°5km/h9231m4.5m/s-27.0°C0%0hPa0V00:00:0000:00:0000:00:00
ARGUS22026-09-01 11:46:0027.68140-82.44636304°4km/h9144m5.3m/s-26.4°C0%0hPa0V00:00:0000:00:0000:00:00
ARGUS22026-09-01 11:45:3927.68128-82.44648330°9km/h9049m5.6m/s-25.7°C0%0hPa0V00:00:0000:00:0000:00:00
ARGUS22026-09-01 11:45:1927.68115-82.4465628°9km/h8955m3.9m/s-24.8°C0%0hPa0V00:00:0000:00:0000:00:00
ARGUS22026-09-01 11:44:5727.68105-82.44678121°9km/h8865m4.5m/s-24.0°C0%0hPa0V00:00:0000:00:0000:00:00
ARGUS22026-09-01 11:44:3727.68101-82.4470150°9km/h8772m4.8m/s-23.5°C0%0hPa0V00:00:0000:00:0000:00:00
ARGUS22026-09-01 11:44:1627.68108-82.4472875°16km/h8681m3.2m/s-22.9°C0%0hPa0V00:00:0000:00:0000:00:00
ARGUS22026-09-01 11:43:5527.68122-82.44767132°7km/h8592m5.2m/s-22.0°C0%0hPa0V00:00:0000:00:0000:00:00
ARGUS22026-09-01 11:43:3527.68135-82.44807296°11km/h8502m3.3m/s-21.7°C0%0hPa0V00:00:0000:00:0000:00:00
ARGUS22026-09-01 11:42:5427.68180-82.44859231°4km/h8298m5.8m/s-21.0°C0%0hPa0V00:00:0000:00:0000:00:00
ARGUS22026-09-01 11:42:3227.68229-82.44846115°9km/h8202m3.4m/s-20.4°C0%0hPa0V00:00:0000:00:0000:00:00
ARGUS22026-09-01 11:42:1127.68276-82.44840171°7km/h8117m5.3m/s-19.7°C0%0hPa0V00:00:0000:00:0000:00:00
ARGUS22026-09-01 11:41:5127.68312-82.44832213°33km/h8024m5.4m/s-19.1°C0%0hPa0V00:00:0000:00:0000:00:00
ARGUS22026-09-01 11:41:3127.68363-82.44831160°7km/h7908m3.4m/s-18.3°C0%0hPa0V00:00:0000:00:0000:00:00
ARGUS22026-09-01 11:41:1027.68427-82.44827147°15km/h7817m5.0m/s-17.9°C0%0hPa0V00:00:0000:00:0000:00:00
ARGUS22026-09-01 11:40:4827.68486-82.44807219°15km/h7729m4.1m/s-17.3°C0%0hPa0V00:00:0000:00:0000:00:00
ARGUS22026-09-01 11:40:2727.68529-82.44795183°5km/h7640m3.4m/s-16.6°C0%0hPa0V00:00:0000:00:0000:00:00
ARGUS22026-09-01 11:40:0527.68574-82.44783177°11km/h7548m4.4m/s-16.0°C0%0hPa0V00:00:0000:00:0000:00:00
ARGUS22026-09-01 11:37:3627.69054-82.44541194°18km/h6812m5.3m/s-10.8°C0%0hPa0V00:00:0000:00:0000:00:00
ARGUS22026-09-01 11:37:1627.69130-82.44492193°24km/h6714m4.5m/s-10.2°C0%0hPa0V00:00:0000:00:0000:00:00
ARGUS22026-09-01 11:36:5527.69226-82.44432144°15km/h6608m4.1m/s-9.6°C0%0hPa0V00:00:0000:00:0000:00:00
ARGUS22026-09-01 11:36:3327.69320-82.44387163°18km/h6495m3.3m/s-9.0°C0%0hPa0V00:00:0000:00:0000:00:00
ARGUS22026-09-01 11:36:1227.69429-82.44328193°44km/h6380m6.6m/s-8.5°C0%0hPa0V00:00:0000:00:0000:00:00
ARGUS22026-09-01 11:34:3427.69909-82.43746290°4km/h5818m7.1m/s-5.8°C0%0hPa0V00:00:0000:00:0000:00:00
ARGUS22026-09-01 11:34:1327.69965-82.43621282°26km/h5688m7.5m/s-5.1°C0%0hPa0V00:00:0000:00:0000:00:00
ARGUS22026-09-01 11:33:5327.70003-82.43465279°27km/h5579m5.9m/s-4.6°C0%0hPa0V00:00:0000:00:0000:00:00
ARGUS22026-09-01 11:33:3227.70071-82.43340229°22km/h5451m7.0m/s-3.8°C0%0hPa0V00:00:0000:00:0000:00:00
ARGUS22026-09-01 11:33:1227.70114-82.43197229°31km/h5327m6.2m/s-4.0°C0%0hPa0V00:00:0000:00:0000:00:00
ARGUS22026-09-01 11:32:5127.70149-82.43076289°15km/h5206m5.4m/s-3.2°C0%0hPa0V00:00:0000:00:0000:00:00
ARGUS22026-09-01 11:32:3027.70171-82.42938292°29km/h5087m5.9m/s-2.1°C0%0hPa0V00:00:0000:00:0000:00:00
ARGUS22026-09-01 11:32:0827.70199-82.42809277°9km/h4965m2.9m/s-1.5°C0%0hPa0V00:00:0000:00:0000:00:00
ARGUS22026-09-01 11:31:2627.70276-82.42586221°18km/h4727m3.7m/s0.3°C0%0hPa0V00:00:0000:00:0000:00:00
ARGUS22026-09-01 11:30:5027.70338-82.42361227°37km/h4528m6.3m/s1.2°C0%0hPa0V00:00:0000:00:0000:00:00
ARGUS22026-09-01 11:30:2827.70346-82.42253262°40km/h4407m6.4m/s1.7°C0%0hPa0V00:00:0000:00:0000:00:00
ARGUS22026-09-01 11:30:0727.70371-82.42163208°5km/h4277m5.3m/s2.6°C0%0hPa0V00:00:0000:00:0000:00:00
ARGUS22026-09-01 11:29:4727.70418-82.42048288°2km/h4167m4.7m/s3.1°C0%0hPa0V00:00:0000:00:0000:00:00
ARGUS22026-09-01 11:29:2727.70427-82.41958206°11km/h4058m5.3m/s4.0°C0%0hPa0V00:00:0000:00:0000:00:00
ARGUS22026-09-01 11:29:0627.70422-82.41896152°11km/h3941m5.2m/s4.5°C0%0hPa0V00:00:0000:00:0000:00:00
ARGUS22026-09-01 11:28:4527.70458-82.41801222°22km/h3826m7.2m/s5.2°C0%0hPa0V00:00:0000:00:0000:00:00
ARGUS22026-09-01 11:28:2427.70487-82.41741215°20km/h3723m4.9m/s6.0°C0%0hPa0V00:00:0000:00:0000:00:00
ARGUS22026-09-01 11:28:0427.70495-82.41658340°13km/h3615m6.6m/s6.6°C0%0hPa0V00:00:0000:00:0000:00:00
ARGUS22026-09-01 11:25:2127.70415-82.41164309°24km/h2703m5.0m/s11.5°C0%0hPa0V00:00:0000:00:0000:00:00
ARGUS22026-09-01 11:24:2727.70401-82.41032157°16km/h2402m5.0m/s13.3°C0%0hPa0V00:00:0000:00:0000:00:00
ARGUS22026-09-01 11:24:0327.70402-82.40962196°15km/h2266m4.7m/s14.1°C0%0hPa0V00:00:0000:00:0000:00:00
ARGUS22026-09-01 11:23:4327.70408-82.40903267°22km/h2150m5.8m/s14.7°C0%0hPa0V00:00:0000:00:0000:00:00
ARGUS22026-09-01 11:23:2227.70421-82.40823190°16km/h2034m5.0m/s15.1°C0%0hPa0V00:00:0000:00:0000:00:00
ARGUS22026-09-01 11:23:0027.70429-82.4078019°13km/h1922m4.6m/s15.6°C0%0hPa0V00:00:0000:00:0000:00:00
ARGUS22026-09-01 11:22:3427.70434-82.40708259°20km/h1772m5.2m/s16.2°C0%0hPa0V00:00:0000:00:0000:00:00


GPX KML Map

© wettersonde.net (DO2JMG) - 2026  -  -